createdAt,value
2023-02-01T00:00:21.929Z,3.6
2023-02-01T00:01:29.969Z,3.6
2023-02-01T00:02:38.379Z,3.6
2023-02-01T00:03:46.897Z,3.4
2023-02-01T00:04:55.233Z,3.4
2023-02-01T00:06:03.616Z,3.4
2023-02-01T00:07:14.335Z,4.9
2023-02-01T00:08:20.498Z,4.9
2023-02-01T00:09:28.866Z,4.9
2023-02-01T00:10:37.424Z,4.4
2023-02-01T00:11:45.777Z,4.4
2023-02-01T00:12:54.099Z,4.4
2023-02-01T00:14:02.631Z,3.8
2023-02-01T00:15:10.977Z,3.8
2023-02-01T00:16:19.369Z,3.8
2023-02-01T00:17:27.885Z,5.7
2023-02-01T00:18:36.232Z,5.7
2023-02-01T00:19:44.580Z,5.7
2023-02-01T00:20:53.112Z,6.1
2023-02-01T00:22:01.489Z,6.1
2023-02-01T00:23:09.832Z,6.1
2023-02-01T00:24:18.377Z,5.1
2023-02-01T00:25:26.728Z,5.1
2023-02-01T00:26:35.178Z,5.1
2023-02-01T00:27:43.620Z,4.4
2023-02-01T00:28:51.988Z,4.4
2023-02-01T00:30:00.339Z,4.4
2023-02-01T00:31:08.975Z,7.7
2023-02-01T00:32:17.227Z,7.7
2023-02-01T00:33:25.578Z,7.7
2023-02-01T00:34:34.124Z,6.1
2023-02-01T00:35:42.481Z,6.1
2023-02-01T00:36:50.812Z,6.1
2023-02-01T00:37:59.411Z,5.3
2023-02-01T00:39:07.718Z,5.3
2023-02-01T00:40:16.067Z,5.3
2023-02-01T00:41:24.639Z,5.7
2023-02-01T00:42:33.017Z,5.7
2023-02-01T00:43:41.366Z,5.7
2023-02-01T00:44:49.919Z,6.9
2023-02-01T00:45:58.271Z,6.9
2023-02-01T00:47:06.638Z,6.9
2023-02-01T00:48:15.199Z,8.8
2023-02-01T00:49:23.543Z,8.8
2023-02-01T00:50:31.885Z,8.8
2023-02-01T00:51:40.450Z,7.7
2023-02-01T00:52:48.807Z,7.7
2023-02-01T00:53:57.169Z,7.7
2023-02-01T00:55:05.708Z,5.7
2023-02-01T00:56:14.064Z,5.7
2023-02-01T00:57:22.393Z,5.7
2023-02-01T00:58:30.968Z,9.9
2023-02-01T00:59:39.286Z,9.9
2023-02-01T01:00:47.728Z,9.9
2023-02-01T01:01:56.224Z,8.8
2023-02-01T01:03:04.585Z,8.8
2023-02-01T01:04:12.943Z,8.8
2023-02-01T01:05:21.475Z,7
2023-02-01T01:06:29.829Z,7
2023-02-01T01:07:38.153Z,7
2023-02-01T01:08:46.703Z,8.2
2023-02-01T01:09:55.084Z,8.2
2023-02-01T01:11:03.383Z,8.2
2023-02-01T01:12:11.902Z,6.9
2023-02-01T01:13:20.254Z,6.9
2023-02-01T01:14:28.595Z,6.9
2023-02-01T01:15:37.161Z,9.6
2023-02-01T01:16:45.494Z,9.6
2023-02-01T01:17:53.848Z,9.6
2023-02-01T01:19:02.419Z,7.3
2023-02-01T01:20:10.729Z,7.3
2023-02-01T01:21:19.090Z,7.3
2023-02-01T01:22:27.636Z,7.6
2023-02-01T01:23:35.948Z,7.6
2023-02-01T01:24:44.271Z,7.6
2023-02-01T01:25:52.833Z,7.6
2023-02-01T01:27:01.122Z,7.6
2023-02-01T01:28:09.482Z,7.6
2023-02-01T01:29:18.016Z,6.5
2023-02-01T01:30:26.324Z,6.5
2023-02-01T01:31:34.675Z,6.5
2023-02-01T01:32:43.183Z,8.6
2023-02-01T01:33:51.507Z,8.6
2023-02-01T01:34:59.824Z,8.6
2023-02-01T01:36:08.342Z,7.6
2023-02-01T01:37:16.645Z,7.6
2023-02-01T01:38:24.979Z,7.6
2023-02-01T01:39:33.508Z,7.6
2023-02-01T01:40:41.833Z,7.6
2023-02-01T01:41:50.183Z,7.6
2023-02-01T01:42:58.706Z,8.2
2023-02-01T01:44:07.043Z,8.2
2023-02-01T01:45:15.358Z,8.2
2023-02-01T01:46:23.985Z,9
2023-02-01T01:47:32.211Z,9
2023-02-01T01:48:40.539Z,9
2023-02-01T01:49:49.067Z,8.2
2023-02-01T01:50:57.394Z,8.2
2023-02-01T01:52:05.729Z,8.2
2023-02-01T01:53:14.284Z,7.3
2023-02-01T01:54:22.613Z,7.3
2023-02-01T01:55:30.955Z,7.3
2023-02-01T01:56:39.501Z,8.5
2023-02-01T01:57:47.879Z,8.5
2023-02-01T01:58:56.190Z,8.5
2023-02-01T02:00:04.742Z,8.4
2023-02-01T02:01:13.189Z,8.4
2023-02-01T02:02:21.474Z,8.4
2023-02-01T02:03:30.027Z,7.5
2023-02-01T02:04:38.357Z,7.5
2023-02-01T02:05:46.703Z,7.5
2023-02-01T02:06:55.246Z,10.4
2023-02-01T02:08:03.620Z,10.4
2023-02-01T02:09:11.949Z,10.4
2023-02-01T02:10:20.770Z,8.4
2023-02-01T02:11:28.847Z,8.4
2023-02-01T02:12:37.186Z,8.4
2023-02-01T02:13:45.795Z,10.3
2023-02-01T02:14:54.103Z,10.3
2023-02-01T02:16:02.483Z,10.3
2023-02-01T02:17:11.006Z,10
2023-02-01T02:18:19.360Z,10
2023-02-01T02:19:27.683Z,10
2023-02-01T02:20:36.226Z,12.6
2023-02-01T02:21:44.595Z,12.6
2023-02-01T02:22:52.943Z,12.6
2023-02-01T02:24:01.498Z,8.6
2023-02-01T02:25:09.824Z,8.6
2023-02-01T02:26:18.216Z,8.6
2023-02-01T02:27:26.725Z,10.3
2023-02-01T02:28:35.082Z,10.3
2023-02-01T02:29:43.459Z,10.3
2023-02-01T02:30:52.035Z,8.6
2023-02-01T02:32:00.348Z,8.6
2023-02-01T02:33:08.698Z,8.6
2023-02-01T02:34:17.235Z,8.6
2023-02-01T02:35:25.592Z,8.6
2023-02-01T02:36:33.949Z,8.6
2023-02-01T02:37:42.504Z,9.5
2023-02-01T02:38:50.859Z,9.5
2023-02-01T02:39:59.198Z,9.5
2023-02-01T02:41:07.785Z,8.7
2023-02-01T02:42:16.097Z,8.7
2023-02-01T02:43:24.484Z,8.7
2023-02-01T02:44:33.026Z,9.7
2023-02-01T02:45:41.460Z,9.7
2023-02-01T02:46:49.717Z,9.7
2023-02-01T02:47:58.287Z,7.4
2023-02-01T02:49:06.654Z,7.4
2023-02-01T02:50:14.992Z,7.4
2023-02-01T02:51:23.527Z,9.8
2023-02-01T02:52:31.862Z,9.8
2023-02-01T02:53:40.226Z,9.8
2023-02-01T02:54:48.801Z,9.5
2023-02-01T02:55:57.134Z,9.5
2023-02-01T02:57:05.486Z,9.5
2023-02-01T02:58:14.043Z,7.9
2023-02-01T02:59:22.387Z,7.9
2023-02-01T03:00:30.793Z,7.9
2023-02-01T03:01:39.317Z,11
2023-02-01T03:02:47.679Z,11
2023-02-01T03:03:56.041Z,11
2023-02-01T03:05:04.567Z,8.1
2023-02-01T03:06:12.914Z,8.1
2023-02-01T03:07:21.296Z,8.1
2023-02-01T03:08:29.886Z,10.1
2023-02-01T03:09:38.217Z,10.1
2023-02-01T03:10:46.553Z,10.1
2023-02-01T03:11:55.117Z,9.2
2023-02-01T03:13:03.483Z,9.2
2023-02-01T03:14:11.845Z,9.2
2023-02-01T03:15:20.409Z,7.7
2023-02-01T03:16:28.803Z,7.7
2023-02-01T03:17:37.127Z,7.7
2023-02-01T03:18:45.662Z,11.1
2023-02-01T03:19:54.010Z,11.1
2023-02-01T03:21:02.370Z,11.1
2023-02-01T03:22:10.918Z,9
2023-02-01T03:23:19.292Z,9
2023-02-01T03:24:27.628Z,9
2023-02-01T03:25:36.232Z,7.9
2023-02-01T03:26:44.575Z,7.9
2023-02-01T03:27:52.922Z,7.9
2023-02-01T03:29:01.478Z,8.6
2023-02-01T03:30:09.830Z,8.6
2023-02-01T03:31:18.228Z,8.6
2023-02-01T03:32:26.734Z,5.9
2023-02-01T03:33:35.132Z,5.9
2023-02-01T03:34:43.480Z,5.9
2023-02-01T03:35:52.061Z,9.1
2023-02-01T03:37:00.388Z,9.1
2023-02-01T03:38:08.725Z,9.1
2023-02-01T03:39:17.309Z,5.3
2023-02-01T03:40:25.652Z,5.3
2023-02-01T03:41:34.001Z,5.3
2023-02-01T03:42:42.557Z,7.5
2023-02-01T03:43:50.884Z,7.5
2023-02-01T03:44:59.243Z,7.5
2023-02-01T03:46:07.836Z,6.3
2023-02-01T03:47:16.135Z,6.3
2023-02-01T03:48:24.501Z,6.3
2023-02-01T03:49:33.069Z,3.4
2023-02-01T03:50:41.384Z,3.4
2023-02-01T03:51:49.791Z,3.4
2023-02-01T03:53:01.110Z,4.9
2023-02-01T03:54:09.457Z,4.9
2023-02-01T03:55:17.802Z,4.9
2023-02-01T03:56:26.370Z,5.2
2023-02-01T03:57:34.739Z,5.2
2023-02-01T03:58:43.077Z,5.2
2023-02-01T03:59:51.665Z,7.6
2023-02-01T04:01:00.025Z,7.6
2023-02-01T04:02:08.426Z,7.6
2023-02-01T04:03:16.911Z,5.3
2023-02-01T04:04:25.263Z,5.3
2023-02-01T04:05:33.630Z,5.3
2023-02-01T04:06:42.164Z,3.6
2023-02-01T04:07:50.493Z,3.6
2023-02-01T04:08:58.824Z,3.6
2023-02-01T04:10:07.337Z,5
2023-02-01T04:11:15.685Z,5
2023-02-01T04:12:24.023Z,5
2023-02-01T04:13:32.602Z,7.4
2023-02-01T04:14:40.921Z,7.4
2023-02-01T04:15:49.282Z,7.4
2023-02-01T04:16:57.827Z,5.9
2023-02-01T04:18:06.184Z,5.9
2023-02-01T04:19:14.528Z,5.9
2023-02-01T04:20:23.374Z,8.8
2023-02-01T04:21:31.434Z,8.8
2023-02-01T04:22:39.724Z,8.8
2023-02-01T04:23:48.262Z,8
2023-02-01T04:24:56.571Z,8
2023-02-01T04:26:04.910Z,8
2023-02-01T04:27:13.431Z,8.2
2023-02-01T04:28:21.808Z,8.2
2023-02-01T04:29:30.157Z,8.2
2023-02-01T04:30:38.776Z,6.3
2023-02-01T04:31:47.138Z,6.3
2023-02-01T04:32:55.391Z,6.3
2023-02-01T04:34:03.943Z,8
2023-02-01T04:35:12.364Z,8
2023-02-01T04:36:22.025Z,8
2023-02-01T04:37:30.656Z,6.1
2023-02-01T04:38:38.977Z,6.1
2023-02-01T04:39:47.412Z,6.1
2023-02-01T04:40:55.936Z,6.5
2023-02-01T04:42:04.348Z,6.5
2023-02-01T04:43:12.666Z,6.5
2023-02-01T04:44:21.191Z,5.6
2023-02-01T04:45:29.500Z,5.6
2023-02-01T04:46:37.813Z,5.6
2023-02-01T04:47:46.330Z,6.1
2023-02-01T04:48:54.662Z,6.1
2023-02-01T04:50:02.975Z,6.1
2023-02-01T04:51:11.494Z,6.2
2023-02-01T04:52:19.809Z,6.2
2023-02-01T04:53:28.152Z,6.2
2023-02-01T04:54:36.653Z,7.8
2023-02-01T04:55:44.970Z,7.8
2023-02-01T04:56:53.275Z,7.8
2023-02-01T04:58:01.827Z,7.6
2023-02-01T04:59:10.150Z,7.6
2023-02-01T05:00:18.518Z,7.6
2023-02-01T05:01:27.013Z,6.8
2023-02-01T05:02:35.294Z,6.8
2023-02-01T05:03:43.635Z,6.8
2023-02-01T05:04:52.177Z,6.8
2023-02-01T05:06:00.454Z,6.8
2023-02-01T05:07:08.756Z,6.8
2023-02-01T05:08:17.309Z,9.4
2023-02-01T05:09:25.653Z,9.4
2023-02-01T05:10:33.945Z,9.4
2023-02-01T05:11:42.465Z,9.1
2023-02-01T05:12:50.786Z,9.1
2023-02-01T05:13:59.217Z,9.1
2023-02-01T05:15:07.636Z,7.2
2023-02-01T05:16:15.943Z,7.2
2023-02-01T05:17:24.294Z,7.2
2023-02-01T05:18:32.804Z,6.5
2023-02-01T05:19:41.115Z,6.5
2023-02-01T05:20:49.435Z,6.5
2023-02-01T05:21:57.955Z,7.9
2023-02-01T05:23:06.280Z,7.9
2023-02-01T05:24:14.607Z,7.9
2023-02-01T05:25:23.151Z,8.6
2023-02-01T05:26:31.541Z,8.6
2023-02-01T05:27:39.826Z,8.6
2023-02-01T05:28:48.372Z,8.5
2023-02-01T05:29:56.697Z,8.5
2023-02-01T05:31:05.089Z,8.5
2023-02-01T05:32:21.928Z,10
2023-02-01T05:33:21.852Z,10
2023-02-01T05:34:30.176Z,10
2023-02-01T05:35:38.695Z,55.599998
2023-02-01T05:36:47.013Z,55.599998
2023-02-01T05:37:55.359Z,55.599998
2023-02-01T05:39:03.909Z,10.9
2023-02-01T05:40:12.234Z,10.9
2023-02-01T05:41:20.567Z,10.9
2023-02-01T05:42:29.071Z,26.299999
2023-02-01T05:43:37.394Z,26.299999
2023-02-01T05:44:45.718Z,26.299999
2023-02-01T05:45:54.291Z,30.4
2023-02-01T05:47:02.588Z,30.4
2023-02-01T05:48:10.911Z,30.4
2023-02-01T05:49:19.436Z,22.9
2023-02-01T05:50:27.755Z,22.9
2023-02-01T05:51:36.097Z,22.9
2023-02-01T05:52:44.629Z,14.6
2023-02-01T05:53:52.960Z,14.6
2023-02-01T05:55:01.293Z,14.6
2023-02-01T05:56:09.840Z,21.799999
2023-02-01T05:57:18.155Z,21.799999
2023-02-01T05:58:26.455Z,21.799999
2023-02-01T05:59:37.613Z,14.9
2023-02-01T06:00:45.932Z,14.9
2023-02-01T06:01:54.298Z,14.9
2023-02-01T06:03:02.925Z,20.9
2023-02-01T06:04:11.210Z,20.9
2023-02-01T06:05:19.525Z,20.9
2023-02-01T06:06:28.089Z,50.799999
2023-02-01T06:07:36.408Z,50.799999
2023-02-01T06:08:44.762Z,50.799999
2023-02-01T06:09:53.294Z,8.6
2023-02-01T06:11:01.600Z,8.6
2023-02-01T06:12:09.909Z,8.6
2023-02-01T06:13:18.490Z,12.5
2023-02-01T06:14:26.773Z,12.5
2023-02-01T06:15:35.087Z,12.5
2023-02-01T06:16:43.605Z,10.8
2023-02-01T06:17:51.946Z,10.8
2023-02-01T06:19:00.265Z,10.8
2023-02-01T06:20:10.565Z,7.9
2023-02-01T06:21:17.134Z,7.9
2023-02-01T06:22:25.437Z,7.9
2023-02-01T06:23:33.983Z,8.1
2023-02-01T06:24:42.293Z,8.1
2023-02-01T06:25:50.601Z,8.1
2023-02-01T06:26:59.118Z,7.3
2023-02-01T06:28:07.451Z,7.3
2023-02-01T06:29:15.787Z,7.3
2023-02-01T06:30:24.622Z,11.2
2023-02-01T06:31:32.734Z,11.2
2023-02-01T06:32:40.923Z,11.2
2023-02-01T06:33:49.463Z,13
2023-02-01T06:34:57.785Z,13
2023-02-01T06:36:06.091Z,13
2023-02-01T06:37:14.613Z,10.8
2023-02-01T06:38:22.936Z,10.8
2023-02-01T06:39:31.273Z,10.8
2023-02-01T06:40:39.789Z,8.9
2023-02-01T06:41:48.109Z,8.9
2023-02-01T06:42:56.419Z,8.9
2023-02-01T06:44:04.938Z,9
2023-02-01T06:45:13.294Z,9
2023-02-01T06:46:21.607Z,9
2023-02-01T06:47:30.101Z,9.4
2023-02-01T06:48:38.431Z,9.4
2023-02-01T06:49:46.743Z,9.4
2023-02-01T06:50:55.281Z,12.2
2023-02-01T06:52:03.597Z,12.2
2023-02-01T06:53:11.913Z,12.2
2023-02-01T06:54:20.450Z,11.8
2023-02-01T06:55:28.758Z,11.8
2023-02-01T06:56:37.066Z,11.8
2023-02-01T06:57:45.597Z,13.9
2023-02-01T06:58:53.931Z,13.9
2023-02-01T07:00:02.281Z,13.9
2023-02-01T07:01:10.853Z,9.3
2023-02-01T07:02:19.135Z,9.3
2023-02-01T07:03:27.458Z,9.3
2023-02-01T07:04:35.975Z,8.4
2023-02-01T07:05:44.339Z,8.4
2023-02-01T07:06:52.631Z,8.4
2023-02-01T07:08:01.191Z,10.6
2023-02-01T07:09:09.507Z,10.6
2023-02-01T07:10:17.813Z,10.6
2023-02-01T07:11:26.336Z,12.9
2023-02-01T07:12:34.659Z,12.9
2023-02-01T07:13:42.995Z,12.9
2023-02-01T07:14:51.511Z,13.2
2023-02-01T07:15:59.842Z,13.2
2023-02-01T07:17:08.168Z,13.2
2023-02-01T07:18:16.677Z,11.9
2023-02-01T07:19:24.998Z,11.9
2023-02-01T07:20:33.339Z,11.9
2023-02-01T07:21:41.839Z,9.9
2023-02-01T07:22:50.155Z,9.9
2023-02-01T07:23:58.476Z,9.9
2023-02-01T07:25:07.015Z,10.7
2023-02-01T07:26:15.355Z,10.7
2023-02-01T07:27:23.670Z,10.7
2023-02-01T07:28:32.197Z,11.7
2023-02-01T07:29:40.511Z,11.7
2023-02-01T07:30:48.866Z,11.7
2023-02-01T07:31:57.349Z,11.6
2023-02-01T07:33:05.712Z,11.6
2023-02-01T07:34:13.999Z,11.6
2023-02-01T07:35:22.528Z,7.5
2023-02-01T07:36:30.835Z,7.5
2023-02-01T07:37:39.163Z,7.5
2023-02-01T07:38:47.706Z,9.5
2023-02-01T07:39:55.999Z,9.5
2023-02-01T07:41:04.328Z,9.5
2023-02-01T07:42:12.848Z,7
2023-02-01T07:43:21.163Z,7
2023-02-01T07:44:29.485Z,7
2023-02-01T07:45:38.068Z,13.1
2023-02-01T07:46:46.358Z,13.1
2023-02-01T07:47:54.708Z,13.1
2023-02-01T07:49:03.245Z,11.6
2023-02-01T07:50:11.543Z,11.6
2023-02-01T07:51:19.882Z,11.6
2023-02-01T07:52:28.434Z,10.8
2023-02-01T07:53:36.815Z,10.8
2023-02-01T07:54:45.160Z,10.8
2023-02-01T07:55:53.698Z,12.6
2023-02-01T07:57:02.029Z,12.6
2023-02-01T07:58:10.363Z,12.6
2023-02-01T07:59:18.956Z,11.2
2023-02-01T08:00:27.300Z,11.2
2023-02-01T08:01:35.630Z,11.2
2023-02-01T08:02:44.161Z,11.1
2023-02-01T08:03:52.511Z,11.1
2023-02-01T08:05:00.855Z,11.1
2023-02-01T08:06:09.402Z,10.1
2023-02-01T08:07:17.739Z,10.1
2023-02-01T08:08:26.067Z,10.1
2023-02-01T08:09:34.591Z,9.5
2023-02-01T08:10:42.914Z,9.5
2023-02-01T08:11:51.228Z,9.5
2023-02-01T08:12:59.763Z,8.2
2023-02-01T08:14:08.091Z,8.2
2023-02-01T08:15:16.408Z,8.2
2023-02-01T08:16:24.981Z,14.1
2023-02-01T08:17:33.247Z,14.1
2023-02-01T08:18:41.569Z,14.1
2023-02-01T08:19:50.086Z,8.9
2023-02-01T08:20:58.441Z,8.9
2023-02-01T08:22:06.743Z,8.9
2023-02-01T08:23:15.280Z,14
2023-02-01T08:24:23.600Z,14
2023-02-01T08:25:31.947Z,14
2023-02-01T08:26:40.491Z,11.9
2023-02-01T08:27:48.803Z,11.9
2023-02-01T08:28:57.130Z,11.9
2023-02-01T08:30:05.652Z,17.6
2023-02-01T08:31:13.973Z,17.6
2023-02-01T08:32:22.278Z,17.6
2023-02-01T08:33:30.813Z,19.4
2023-02-01T08:34:39.141Z,19.4
2023-02-01T08:35:47.481Z,19.4
2023-02-01T08:36:56.062Z,29
2023-02-01T08:38:04.394Z,29
2023-02-01T08:39:12.743Z,29
2023-02-01T08:40:21.580Z,46.099998
2023-02-01T08:41:29.637Z,46.099998
2023-02-01T08:42:37.981Z,46.099998
2023-02-01T08:43:46.532Z,15
2023-02-01T08:44:54.869Z,15
2023-02-01T08:46:03.254Z,15
2023-02-01T08:47:11.747Z,12
2023-02-01T08:48:20.116Z,12
2023-02-01T08:49:28.461Z,12
2023-02-01T08:50:37.006Z,15.1
2023-02-01T08:51:45.341Z,15.1
2023-02-01T08:52:53.779Z,15.1
2023-02-01T08:54:02.263Z,12.5
2023-02-01T08:55:10.620Z,12.5
2023-02-01T08:56:18.967Z,12.5
2023-02-01T08:57:27.491Z,9.8
2023-02-01T08:58:35.807Z,9.8
2023-02-01T08:59:44.141Z,9.8
2023-02-01T09:00:52.746Z,11.1
2023-02-01T09:02:00.985Z,11.1
2023-02-01T09:03:09.324Z,11.1
2023-02-01T09:04:17.995Z,9
2023-02-01T09:05:26.199Z,9
2023-02-01T09:06:34.537Z,9
2023-02-01T09:07:43.062Z,10.1
2023-02-01T09:08:51.402Z,10.1
2023-02-01T09:09:59.722Z,10.1
2023-02-01T09:11:08.258Z,11.2
2023-02-01T09:12:16.572Z,11.2
2023-02-01T09:13:24.896Z,11.2
2023-02-01T09:14:33.431Z,8
2023-02-01T09:15:41.784Z,8
2023-02-01T09:16:50.054Z,8
2023-02-01T09:17:58.608Z,12.5
2023-02-01T09:19:24.648Z,12.5
2023-02-01T09:20:15.243Z,12.5
2023-02-01T09:21:23.776Z,8.8
2023-02-01T09:22:32.086Z,8.8
2023-02-01T09:23:40.409Z,8.8
2023-02-01T09:24:48.964Z,12.1
2023-02-01T09:25:57.251Z,12.1
2023-02-01T09:27:05.632Z,12.1
2023-02-01T09:28:14.098Z,10.1
2023-02-01T09:29:22.446Z,10.1
2023-02-01T09:30:31.470Z,10.1
2023-02-01T09:31:41.843Z,20.299999
2023-02-01T09:32:47.642Z,20.299999
2023-02-01T09:33:55.988Z,20.299999
2023-02-01T09:35:04.498Z,14.7
2023-02-01T09:36:12.828Z,14.7
2023-02-01T09:37:21.201Z,14.7
2023-02-01T09:38:29.759Z,19.4
2023-02-01T09:39:38.091Z,19.4
2023-02-01T09:40:46.478Z,19.4
2023-02-01T09:41:54.963Z,17.9
2023-02-01T09:43:03.291Z,17.9
2023-02-01T09:44:11.626Z,17.9
2023-02-01T09:45:20.170Z,14.2
2023-02-01T09:46:28.550Z,14.2
2023-02-01T09:47:36.835Z,14.2
2023-02-01T09:48:45.389Z,10.1
2023-02-01T09:49:53.850Z,10.1
2023-02-01T09:51:02.057Z,10.1
2023-02-01T09:52:10.595Z,7.8
2023-02-01T09:53:18.953Z,7.8
2023-02-01T09:54:28.474Z,7.8
2023-02-01T09:55:35.884Z,8.8
2023-02-01T09:56:44.235Z,8.8
2023-02-01T09:57:52.567Z,8.8
2023-02-01T09:59:01.135Z,6.3
2023-02-01T10:00:09.523Z,6.3
2023-02-01T10:01:17.936Z,6.3
2023-02-01T10:02:26.404Z,7.5
2023-02-01T10:03:34.867Z,7.5
2023-02-01T10:04:43.122Z,7.5
2023-02-01T10:05:51.681Z,8.1
2023-02-01T10:07:00.021Z,8.1
2023-02-01T10:08:08.394Z,8.1
2023-02-01T10:09:16.956Z,6.9
2023-02-01T10:10:25.718Z,6.9
2023-02-01T10:11:33.689Z,6.9
2023-02-01T10:12:42.280Z,8.9
2023-02-01T10:13:50.608Z,8.9
2023-02-01T10:14:58.948Z,8.9
2023-02-01T10:16:07.613Z,7.6
2023-02-01T10:17:15.850Z,7.6
2023-02-01T10:18:24.207Z,7.6
2023-02-01T10:19:32.757Z,5.8
2023-02-01T10:20:41.120Z,5.8
2023-02-01T10:21:49.451Z,5.8
2023-02-01T10:23:19.361Z,8.4
2023-02-01T10:24:17.223Z,8.4
2023-02-01T10:25:14.681Z,8.4
2023-02-01T10:26:23.283Z,10.5
2023-02-01T10:27:31.575Z,10.5
2023-02-01T10:28:40.003Z,10.5
2023-02-01T10:29:48.511Z,7.3
2023-02-01T10:30:56.943Z,7.3
2023-02-01T10:32:05.303Z,7.3
2023-02-01T10:33:13.764Z,34.900002
2023-02-01T10:34:22.136Z,34.900002
2023-02-01T10:35:30.557Z,34.900002
2023-02-01T10:36:39.107Z,8.7
2023-02-01T10:37:47.469Z,8.7
2023-02-01T10:38:55.826Z,8.7
2023-02-01T10:40:04.405Z,10.1
2023-02-01T10:41:12.746Z,10.1
2023-02-01T10:42:21.124Z,10.1
2023-02-01T10:43:29.679Z,9.3
2023-02-01T10:44:38.080Z,9.3
2023-02-01T10:45:46.396Z,9.3
2023-02-01T10:46:54.971Z,7.8
2023-02-01T10:48:03.346Z,7.8
2023-02-01T10:49:11.709Z,7.8
2023-02-01T10:50:20.263Z,5.9
2023-02-01T10:51:28.602Z,5.9
2023-02-01T10:52:36.935Z,5.9
2023-02-01T10:53:45.520Z,9.2
2023-02-01T10:54:53.837Z,9.2
2023-02-01T10:56:02.180Z,9.2
2023-02-01T10:57:10.723Z,10.6
2023-02-01T10:58:19.047Z,10.6
2023-02-01T10:59:27.392Z,10.6
2023-02-01T11:00:35.976Z,17
2023-02-01T11:01:44.289Z,17
2023-02-01T11:02:52.685Z,17
2023-02-01T11:04:01.272Z,9.5
2023-02-01T11:05:09.602Z,9.5
2023-02-01T11:06:17.933Z,9.5
2023-02-01T11:07:26.499Z,9.5
2023-02-01T11:08:34.830Z,9.5
2023-02-01T11:09:43.166Z,9.5
2023-02-01T11:10:51.715Z,12.5
2023-02-01T11:12:00.043Z,12.5
2023-02-01T11:13:08.406Z,12.5
2023-02-01T11:14:16.970Z,11.8
2023-02-01T11:15:25.810Z,11.8
2023-02-01T11:16:33.710Z,11.8
2023-02-01T11:17:42.189Z,9.9
2023-02-01T11:18:50.538Z,9.9
2023-02-01T11:19:58.904Z,9.9
2023-02-01T11:21:07.442Z,7
2023-02-01T11:22:15.793Z,7
2023-02-01T11:23:24.155Z,7
2023-02-01T11:24:32.706Z,11.8
2023-02-01T11:25:41.057Z,11.8
2023-02-01T11:26:49.479Z,11.8
2023-02-01T11:27:57.978Z,10.1
2023-02-01T11:29:06.281Z,10.1
2023-02-01T11:30:14.690Z,10.1
2023-02-01T11:31:23.236Z,6.8
2023-02-01T11:32:31.568Z,6.8
2023-02-01T11:33:39.917Z,6.8
2023-02-01T11:34:48.471Z,5.9
2023-02-01T11:35:56.790Z,5.9
2023-02-01T11:37:05.139Z,5.9
2023-02-01T11:38:13.718Z,9.6
2023-02-01T11:39:22.035Z,9.6
2023-02-01T11:40:30.380Z,9.6
2023-02-01T11:41:38.922Z,9.8
2023-02-01T11:42:47.258Z,9.8
2023-02-01T11:43:55.610Z,9.8
2023-02-01T11:45:05.176Z,8.3
2023-02-01T11:46:12.518Z,8.3
2023-02-01T11:47:20.870Z,8.3
2023-02-01T11:48:29.444Z,8.9
2023-02-01T11:49:37.745Z,8.9
2023-02-01T11:50:46.081Z,8.9
2023-02-01T11:51:54.631Z,7.3
2023-02-01T11:53:03.086Z,7.3
2023-02-01T11:54:11.312Z,7.3
2023-02-01T11:55:19.895Z,8.3
2023-02-01T11:56:28.216Z,8.3
2023-02-01T11:57:36.562Z,8.3
2023-02-01T11:58:45.121Z,6.9
2023-02-01T11:59:56.666Z,6.9
2023-02-01T12:01:01.781Z,6.9
2023-02-01T12:02:10.375Z,7.5
2023-02-01T12:03:18.705Z,7.5
2023-02-01T12:04:27.052Z,7.5
2023-02-01T12:05:35.581Z,6.9
2023-02-01T12:06:43.902Z,6.9
2023-02-01T12:07:52.239Z,6.9
2023-02-01T12:09:00.778Z,7.5
2023-02-01T12:10:09.148Z,7.5
2023-02-01T12:11:17.494Z,7.5
2023-02-01T12:12:26.080Z,7.3
2023-02-01T12:13:34.407Z,7.3
2023-02-01T12:14:42.775Z,7.3
2023-02-01T12:15:51.317Z,5
2023-02-01T12:16:59.682Z,5
2023-02-01T12:18:08.053Z,5
2023-02-01T12:19:17.199Z,5.9
2023-02-01T12:20:26.122Z,5.9
2023-02-01T12:21:33.895Z,5.9
2023-02-01T12:22:42.429Z,7.6
2023-02-01T12:23:50.774Z,7.6
2023-02-01T12:24:59.119Z,7.6
2023-02-01T12:26:07.673Z,5.7
2023-02-01T12:27:16.031Z,5.7
2023-02-01T12:28:24.388Z,5.7
2023-02-01T12:29:32.935Z,8.3
2023-02-01T12:30:41.265Z,8.3
2023-02-01T12:31:49.607Z,8.3
2023-02-01T12:32:58.180Z,6.8
2023-02-01T12:34:06.536Z,6.8
2023-02-01T12:35:14.906Z,6.8
2023-02-01T12:36:23.506Z,6.4
2023-02-01T12:37:31.833Z,6.4
2023-02-01T12:38:40.180Z,6.4
2023-02-01T12:39:48.726Z,8.4
2023-02-01T12:40:57.087Z,8.4
2023-02-01T12:42:05.394Z,8.4
2023-02-01T12:43:13.948Z,5.8
2023-02-01T12:44:22.276Z,5.8
2023-02-01T12:45:30.663Z,5.8
2023-02-01T12:46:39.203Z,5.7
2023-02-01T12:47:47.523Z,5.7
2023-02-01T12:48:55.891Z,5.7
2023-02-01T12:50:04.459Z,6.6
2023-02-01T12:51:12.798Z,6.6
2023-02-01T12:52:21.171Z,6.6
2023-02-01T12:53:29.721Z,6
2023-02-01T12:54:38.077Z,6
2023-02-01T12:55:46.431Z,6
2023-02-01T12:56:54.972Z,5.3
2023-02-01T12:58:03.339Z,5.3
2023-02-01T12:59:11.656Z,5.3
2023-02-01T13:00:20.194Z,6.3
2023-02-01T13:01:28.557Z,6.3
2023-02-01T13:02:36.932Z,6.3
2023-02-01T13:03:45.457Z,6.8
2023-02-01T13:04:53.796Z,6.8
2023-02-01T13:06:02.157Z,6.8
2023-02-01T13:07:10.655Z,7.8
2023-02-01T13:08:19.044Z,7.8
2023-02-01T13:09:27.361Z,7.8
2023-02-01T13:10:35.900Z,8.1
2023-02-01T13:11:44.263Z,8.1
2023-02-01T13:12:52.604Z,8.1
2023-02-01T13:14:01.208Z,8.2
2023-02-01T13:15:09.541Z,8.2
2023-02-01T13:16:19.049Z,8.2
2023-02-01T13:17:26.439Z,8
2023-02-01T13:18:34.794Z,8
2023-02-01T13:19:43.153Z,8
2023-02-01T13:20:51.716Z,8.6
2023-02-01T13:22:00.036Z,8.6
2023-02-01T13:23:08.379Z,8.6
2023-02-01T13:24:16.952Z,8.8
2023-02-01T13:25:25.701Z,8.8
2023-02-01T13:26:33.678Z,8.8
2023-02-01T13:27:42.205Z,10
2023-02-01T13:28:50.554Z,10
2023-02-01T13:29:58.936Z,10
2023-02-01T13:31:07.584Z,8.4
2023-02-01T13:32:15.863Z,8.4
2023-02-01T13:33:52.080Z,8.4
2023-02-01T13:34:32.775Z,9.6
2023-02-01T13:35:41.144Z,9.6
2023-02-01T13:36:49.471Z,9.6
2023-02-01T13:37:58.052Z,8.5
2023-02-01T13:39:06.408Z,8.5
2023-02-01T13:40:14.760Z,8.5
2023-02-01T13:41:23.297Z,11.2
2023-02-01T13:42:31.673Z,11.2
2023-02-01T13:43:40.081Z,11.2
2023-02-01T13:44:48.594Z,8.6
2023-02-01T13:45:56.997Z,8.6
2023-02-01T13:47:05.310Z,8.6
2023-02-01T13:48:13.880Z,10.3
2023-02-01T13:49:22.240Z,10.3
2023-02-01T13:50:30.595Z,10.3
2023-02-01T13:51:39.149Z,11.2
2023-02-01T13:52:47.510Z,11.2
2023-02-01T13:53:55.873Z,11.2
2023-02-01T13:55:04.442Z,9.9
2023-02-01T13:56:12.856Z,9.9
2023-02-01T13:57:21.172Z,9.9
2023-02-01T13:58:29.724Z,8.9
2023-02-01T13:59:38.039Z,8.9
2023-02-01T14:00:46.401Z,8.9
2023-02-01T14:01:54.954Z,10.1
2023-02-01T14:03:05.984Z,10.1
2023-02-01T14:04:14.328Z,10.1
2023-02-01T14:05:23.235Z,9.1
2023-02-01T14:06:31.254Z,9.1
2023-02-01T14:07:39.607Z,9.1
2023-02-01T14:08:48.242Z,7.8
2023-02-01T14:09:56.537Z,7.8
2023-02-01T14:11:04.895Z,7.8
2023-02-01T14:12:13.445Z,9.3
2023-02-01T14:13:21.775Z,9.3
2023-02-01T14:14:30.105Z,9.3
2023-02-01T14:15:38.796Z,9.4
2023-02-01T14:16:47.115Z,9.4
2023-02-01T14:17:55.544Z,9.4
2023-02-01T14:19:04.026Z,10
2023-02-01T14:20:12.380Z,10
2023-02-01T14:21:23.161Z,10
2023-02-01T14:22:29.350Z,12.1
2023-02-01T14:23:37.727Z,12.1
2023-02-01T14:24:46.110Z,12.1
2023-02-01T14:25:54.661Z,8.2
2023-02-01T14:27:03.030Z,8.2
2023-02-01T14:28:11.416Z,8.2
2023-02-01T14:29:21.679Z,7.1
2023-02-01T14:30:28.304Z,7.1
2023-02-01T15:04:26.608Z,0
2023-02-01T15:05:34.973Z,0
2023-02-01T15:06:43.305Z,0
2023-02-01T15:07:51.864Z,7.7
2023-02-01T15:09:00.233Z,7.7
2023-02-01T15:10:08.559Z,7.7
2023-02-01T15:11:17.134Z,9.6
2023-02-01T15:12:25.508Z,9.6
2023-02-01T15:13:39.522Z,9.6
2023-02-01T15:14:48.299Z,9.1
2023-02-01T15:15:56.685Z,9.1
2023-02-01T15:17:05.012Z,9.1
2023-02-01T15:18:13.618Z,17.6
2023-02-01T15:19:21.973Z,17.6
2023-02-01T15:20:30.447Z,17.6
2023-02-01T15:21:38.876Z,21.4
2023-02-01T15:22:47.261Z,21.4
2023-02-01T15:23:55.636Z,21.4
2023-02-01T15:25:04.249Z,12.4
2023-02-01T15:26:12.548Z,12.4
2023-02-01T15:27:20.875Z,12.4
2023-02-01T15:28:29.449Z,13.2
2023-02-01T15:29:37.766Z,13.2
2023-02-01T15:30:46.131Z,13.2
2023-02-01T15:31:54.785Z,11.2
2023-02-01T15:33:03.021Z,11.2
2023-02-01T15:34:11.363Z,11.2
2023-02-01T15:35:19.897Z,9.4
2023-02-01T15:36:28.269Z,9.4
2023-02-01T15:37:36.688Z,9.4
2023-02-01T15:38:45.241Z,9.5
2023-02-01T15:39:53.577Z,9.5
2023-02-01T15:41:01.921Z,9.5
2023-02-01T15:42:10.479Z,6.6
2023-02-01T15:43:18.827Z,6.6
2023-02-01T15:44:27.205Z,6.6
2023-02-01T15:45:35.717Z,9.9
2023-02-01T15:46:44.066Z,9.9
2023-02-01T15:47:52.417Z,9.9
2023-02-01T15:49:00.951Z,10.1
2023-02-01T15:50:09.284Z,10.1
2023-02-01T15:51:17.633Z,10.1
2023-02-01T15:52:26.212Z,8.1
2023-02-01T15:53:34.555Z,8.1
2023-02-01T15:54:42.917Z,8.1
2023-02-01T15:55:51.435Z,8.9
2023-02-01T15:56:59.777Z,8.9
2023-02-01T15:58:08.136Z,8.9
2023-02-01T15:59:16.690Z,7.2
2023-02-01T16:00:25.016Z,7.2
2023-02-01T16:01:33.410Z,7.2
2023-02-01T16:02:41.895Z,8.5
2023-02-01T16:03:50.310Z,8.5
2023-02-01T16:04:58.615Z,8.5
2023-02-01T16:06:07.211Z,16.299999